sensor_id;sensor_type;location;lat;lon;timestamp;P1;P2;P0
33948;PMS7003;20229;49.856;19.030;2023-10-09T15:30:44;121;120;116
33948;PMS7003;20229;49.856;19.030;2023-10-09T15:41:36;98;95;88
33948;PMS7003;20229;49.856;19.030;2023-10-09T15:46:52;83;77;71
33948;PMS7003;20229;49.856;19.030;2023-10-09T15:52:12;106;105;100
33948;PMS7003;20229;49.856;19.030;2023-10-09T15:57:31;109;109;105
33948;PMS7003;20229;49.856;19.030;2023-10-09T16:02:48;112;111;107
33948;PMS7003;20229;49.856;19.030;2023-10-09T16:08:06;107;105;98
33948;PMS7003;20229;49.856;19.030;2023-10-09T16:13:21;100;97;90
33948;PMS7003;20229;49.856;19.030;2023-10-09T16:18:36;94;91;87
33948;PMS7003;20229;49.856;19.030;2023-10-09T16:23:52;100;97;91
33948;PMS7003;20229;49.856;19.030;2023-10-09T16:29:12;89;86;81
33948;PMS7003;20229;49.856;19.030;2023-10-09T16:34:32;94;90;84
33948;PMS7003;20229;49.856;19.030;2023-10-09T16:39:52;98;94;88
33948;PMS7003;20229;49.856;19.030;2023-10-09T16:45:12;112;111;106
33948;PMS7003;20229;49.856;19.030;2023-10-09T16:50:29;82;81;72
33948;PMS7003;20229;49.856;19.030;2023-10-09T16:55:42;112;109;101
33948;PMS7003;20229;49.856;19.030;2023-10-09T17:01:02;88;86;76
33948;PMS7003;20229;49.856;19.030;2023-10-09T17:06:16;109;107;95
33948;PMS7003;20229;49.856;19.030;2023-10-09T17:11:32;103;101;92
33948;PMS7003;20229;49.856;19.030;2023-10-09T17:16:49;82;81;73
33948;PMS7003;20229;49.856;19.030;2023-10-09T17:22:04;91;90;84
33948;PMS7003;20229;49.856;19.030;2023-10-09T17:27:27;97;97;92
33948;PMS7003;20229;49.856;19.030;2023-10-09T17:32:44;90;89;80
33948;PMS7003;20229;49.856;19.030;2023-10-09T17:37:59;111;110;100
33948;PMS7003;20229;49.856;19.030;2023-10-09T17:43:13;92;91;84
33948;PMS7003;20229;49.856;19.030;2023-10-09T17:48:30;87;83;77
33948;PMS7003;20229;49.856;19.030;2023-10-09T17:53:45;92;90;73
33948;PMS7003;20229;49.856;19.030;2023-10-09T17:58:59;91;88;70
33948;PMS7003;20229;49.856;19.030;2023-10-09T18:04:16;82;76;65
33948;PMS7003;20229;49.856;19.030;2023-10-09T18:09:31;81;78;65
33948;PMS7003;20229;49.856;19.030;2023-10-09T18:14:49;117;113;83
33948;PMS7003;20229;49.856;19.030;2023-10-09T18:20:13;107;104;80
33948;PMS7003;20229;49.856;19.030;2023-10-09T18:25:28;115;112;85
33948;PMS7003;20229;49.856;19.030;2023-10-09T18:30:41;92;91;64
33948;PMS7003;20229;49.856;19.030;2023-10-09T18:41:26;107;103;77
33948;PMS7003;20229;49.856;19.030;2023-10-09T18:46:40;94;91;79
33948;PMS7003;20229;49.856;19.030;2023-10-09T18:51:56;89;87;78
33948;PMS7003;20229;49.856;19.030;2023-10-09T18:57:11;94;91;74
33948;PMS7003;20229;49.856;19.030;2023-10-09T19:02:25;84;81;72
33948;PMS7003;20229;49.856;19.030;2023-10-09T19:07:39;80;77;68
33948;PMS7003;20229;49.856;19.030;2023-10-09T19:12:53;87;85;77
33948;PMS7003;20229;49.856;19.030;2023-10-09T19:18:07;105;103;92
33948;PMS7003;20229;49.856;19.030;2023-10-09T19:23:25;107;107;99
33948;PMS7003;20229;49.856;19.030;2023-10-09T19:28:42;114;112;100
33948;PMS7003;20229;49.856;19.030;2023-10-09T19:33:56;122;121;110
33948;PMS7003;20229;49.856;19.030;2023-10-09T19:39:15;113;111;101
33948;PMS7003;20229;49.856;19.030;2023-10-09T19:44:30;114;113;100
33948;PMS7003;20229;49.856;19.030;2023-10-09T19:49:44;97;96;83
33948;PMS7003;20229;49.856;19.030;2023-10-09T19:54:58;86;84;74
33948;PMS7003;20229;49.856;19.030;2023-10-09T20:00:12;89;86;76
33948;PMS7003;20229;49.856;19.030;2023-10-09T20:05:37;71;63;58
33948;PMS7003;20229;49.856;19.030;2023-10-09T20:10:54;64;58;49
33948;PMS7003;20229;49.856;19.030;2023-10-09T20:16:08;64;57;48
33948;PMS7003;20229;49.856;19.030;2023-10-09T20:21:22;68;61;51
33948;PMS7003;20229;49.856;19.030;2023-10-09T20:26:36;72;63;53
33948;PMS7003;20229;49.856;19.030;2023-10-09T20:31:55;75;67;58
33948;PMS7003;20229;49.856;19.030;2023-10-09T20:37:09;81;77;69
33948;PMS7003;20229;49.856;19.030;2023-10-09T20:42:26;91;90;82
33948;PMS7003;20229;49.856;19.030;2023-10-09T20:47:43;79;77;71
33948;PMS7003;20229;49.856;19.030;2023-10-09T20:53:09;90;89;82
33948;PMS7003;20229;49.856;19.030;2023-10-09T20:58:23;102;100;94
33948;PMS7003;20229;49.856;19.030;2023-10-09T21:03:37;110;108;102
33948;PMS7003;20229;49.856;19.030;2023-10-09T21:08:51;131;128;120
33948;PMS7003;20229;49.856;19.030;2023-10-09T21:14:05;131;128;121
33948;PMS7003;20229;49.856;19.030;2023-10-09T21:19:19;122;119;108
33948;PMS7003;20229;49.856;19.030;2023-10-09T21:24:35;132;128;123
33948;PMS7003;20229;49.856;19.030;2023-10-09T21:29:49;123;117;111
33948;PMS7003;20229;49.856;19.030;2023-10-09T21:35:03;112;109;101
33948;PMS7003;20229;49.856;19.030;2023-10-09T21:40:21;116;113;106
33948;PMS7003;20229;49.856;19.030;2023-10-09T21:45:41;89;85;80
33948;PMS7003;20229;49.856;19.030;2023-10-09T21:50:58;84;79;74
33948;PMS7003;20229;49.856;19.030;2023-10-09T21:56:13;79;74;67
33948;PMS7003;20229;49.856;19.030;2023-10-09T22:01:28;89;83;77
33948;PMS7003;20229;49.856;19.030;2023-10-09T22:06:42;132;130;121
33948;PMS7003;20229;49.856;19.030;2023-10-09T22:11:56;89;82;76
33948;PMS7003;20229;49.856;19.030;2023-10-09T22:17:10;95;90;83
33948;PMS7003;20229;49.856;19.030;2023-10-09T22:22:24;85;81;76
33948;PMS7003;20229;49.856;19.030;2023-10-09T22:27:39;82;77;71
33948;PMS7003;20229;49.856;19.030;2023-10-09T22:32:55;89;83;77
33948;PMS7003;20229;49.856;19.030;2023-10-09T22:38:17;76;71;66
33948;PMS7003;20229;49.856;19.030;2023-10-09T22:43:36;91;85;79
33948;PMS7003;20229;49.856;19.030;2023-10-09T22:48:53;93;90;86
33948;PMS7003;20229;49.856;19.030;2023-10-09T22:54:50;82;75;69
33948;PMS7003;20229;49.856;19.030;2023-10-09T23:00:08;76;72;66
33948;PMS7003;20229;49.856;19.030;2023-10-09T23:05:35;74;68;63
33948;PMS7003;20229;49.856;19.030;2023-10-09T23:10:57;71;65;60
33948;PMS7003;20229;49.856;19.030;2023-10-09T23:16:23;81;77;70
33948;PMS7003;20229;49.856;19.030;2023-10-09T23:21:52;87;86;80
33948;PMS7003;20229;49.856;19.030;2023-10-09T23:27:18;78;76;70
33948;PMS7003;20229;49.856;19.030;2023-10-09T23:33:13;65;58;54
33948;PMS7003;20229;49.856;19.030;2023-10-09T23:38:39;82;80;73
33948;PMS7003;20229;49.856;19.030;2023-10-09T23:44:05;83;77;72
33948;PMS7003;20229;49.856;19.030;2023-10-09T23:49:21;71;62;57
33948;PMS7003;20229;49.856;19.030;2023-10-09T23:54:42;83;80;76
